createdAt,value
2018-11-02T00:00:36.738Z,95710.4
2018-11-02T00:01:38.918Z,95711.5
2018-11-02T00:02:40.898Z,95713
2018-11-02T00:03:42.238Z,95712.1
2018-11-02T00:04:44.138Z,95710.5
2018-11-02T00:05:46.308Z,95712.2
2018-11-02T00:06:48.211Z,95714.4
2018-11-02T00:07:50.349Z,95714.8
2018-11-02T00:08:52.248Z,95718.3
2018-11-02T00:09:55.136Z,95723.5
2018-11-02T00:10:57.908Z,95721.5
2018-11-02T00:11:59.824Z,95727.1
2018-11-02T00:13:02.258Z,95726.8
2018-11-02T00:14:04.692Z,95735.8
2018-11-02T00:15:07.147Z,95732.8
2018-11-02T00:16:09.306Z,95738.8
2018-11-02T00:17:11.475Z,95737.4
2018-11-02T00:18:13.938Z,95736.3
2018-11-02T00:19:16.359Z,95735.3
2018-11-02T00:20:18.241Z,95733.4
2018-11-02T00:21:20.367Z,95733.1
2018-11-02T00:22:22.870Z,95732.3
2018-11-02T00:23:25.027Z,95730.9
2018-11-02T00:24:26.888Z,95732.3
2018-11-02T00:25:29.092Z,95729.7
2018-11-02T00:26:32.288Z,95730.4
2018-11-02T00:27:34.639Z,95729.8
2018-11-02T00:28:37.413Z,95731.5
2018-11-02T00:29:39.569Z,95727.2
2018-11-02T00:30:42.007Z,95726.7
2018-11-02T00:31:44.306Z,95728.2
2018-11-02T00:32:46.629Z,95726.7
2018-11-02T00:33:48.980Z,95725
2018-11-02T00:34:51.451Z,95719.7
2018-11-02T00:35:53.879Z,95720.7
2018-11-02T00:36:56.308Z,95717.5
2018-11-02T00:37:58.745Z,95715.2
2018-11-02T00:39:00.905Z,95711.3
2018-11-02T00:40:03.059Z,95716.3
2018-11-02T00:41:05.218Z,95714.8
2018-11-02T00:42:07.417Z,95717.6
2018-11-02T00:43:10.050Z,95717.5
2018-11-02T00:44:14.120Z,95716.3
2018-11-02T00:45:17.269Z,95717.5
2018-11-02T00:46:19.360Z,95713
2018-11-02T00:47:21.797Z,95708.9
2018-11-02T00:48:24.225Z,95710.6
2018-11-02T00:49:26.375Z,95709.8
2018-11-02T00:50:28.283Z,95714.7
2018-11-02T00:51:30.417Z,95710.9
2018-11-02T00:52:32.851Z,95716.2
2018-11-02T00:53:35.008Z,95716.1
2018-11-02T00:54:37.439Z,95707.6
2018-11-02T00:55:39.871Z,95702.3
2018-11-02T00:56:42.012Z,95705.2
2018-11-02T00:57:44.161Z,95702.8
2018-11-02T00:58:46.635Z,95699.4
2018-11-02T00:59:48.505Z,95700.4
2018-11-02T01:00:50.267Z,95699.6
2018-11-02T01:01:53.033Z,95699.8
2018-11-02T01:02:55.179Z,95697.1
2018-11-02T01:03:57.338Z,95699.9
2018-11-02T01:04:59.505Z,95699.7
2018-11-02T01:06:01.378Z,95700.2
2018-11-02T01:07:03.532Z,95697.5
2018-11-02T01:08:05.976Z,95701.6
2018-11-02T01:09:07.848Z,95702.7
2018-11-02T01:10:09.468Z,95704.2
2018-11-02T01:11:11.378Z,95701.3
2018-11-02T01:12:13.573Z,95697.3
2018-11-02T01:13:15.434Z,95700
2018-11-02T01:14:17.291Z,95698
2018-11-02T01:15:20.240Z,95698
2018-11-02T01:16:22.595Z,95698.5
2018-11-02T01:17:25.140Z,95704.7
2018-11-02T01:18:26.988Z,95710.3
2018-11-02T01:19:29.125Z,95714
2018-11-02T01:20:30.476Z,95713.3
2018-11-02T01:21:32.375Z,95711.7
2018-11-02T01:22:34.001Z,95718.1
2018-11-02T01:23:36.426Z,95715.2
2018-11-02T01:24:38.872Z,95719.1
2018-11-02T01:25:41.029Z,95717.9
2018-11-02T01:26:43.452Z,95712.5
2018-11-02T01:27:45.345Z,95711.2
2018-11-02T01:28:47.808Z,95708.4
2018-11-02T01:29:49.961Z,95705.2
2018-11-02T01:30:52.611Z,95706.1
2018-11-02T01:31:55.959Z,95701.1
2018-11-02T01:32:57.895Z,95702.1
2018-11-02T01:33:59.476Z,95705.6
2018-11-02T01:35:01.907Z,95703.9
2018-11-02T01:36:04.095Z,95705.9
2018-11-02T01:37:05.941Z,95703.1
2018-11-02T01:38:08.413Z,95696.7
2018-11-02T01:39:10.535Z,95699.7
2018-11-02T01:40:12.409Z,95694.8
2018-11-02T01:41:14.259Z,95696.6
2018-11-02T01:42:16.464Z,95697.1
2018-11-02T01:43:18.008Z,95701.5
2018-11-02T01:44:20.171Z,95703
2018-11-02T01:45:22.630Z,95705.2
2018-11-02T01:46:24.501Z,95704.6
2018-11-02T01:47:26.949Z,95704.8
2018-11-02T01:48:29.728Z,95702.3
2018-11-02T01:49:31.328Z,95702.8
2018-11-02T01:50:33.754Z,95700.1
2018-11-02T01:51:35.620Z,95694.3
2018-11-02T01:52:37.786Z,95692.9
2018-11-02T01:53:39.694Z,95691.9
2018-11-02T01:54:41.594Z,95690.9
2018-11-02T01:55:43.449Z,95691.6
2018-11-02T01:56:45.325Z,95691.5
2018-11-02T01:57:46.929Z,95689.1
2018-11-02T01:58:48.799Z,95690.5
2018-11-02T01:59:50.957Z,95693.3
2018-11-02T02:00:53.107Z,95693.8
2018-11-02T02:01:54.980Z,95695.3
2018-11-02T02:02:58.162Z,95694.2
2018-11-02T02:04:00.841Z,95696.4
2018-11-02T02:05:03.374Z,95694.2
2018-11-02T02:06:05.805Z,95693.8
2018-11-02T02:07:07.959Z,95697.4
2018-11-02T02:08:10.389Z,95699.2
2018-11-02T02:09:12.833Z,95700.2
2018-11-02T02:10:14.459Z,95700.5
2018-11-02T02:11:16.618Z,95697.8
2018-11-02T02:12:19.091Z,95698.3
2018-11-02T02:13:21.666Z,95697.3
2018-11-02T02:14:24.208Z,95691.5
2018-11-02T02:15:26.377Z,95696.4
2018-11-02T02:16:28.810Z,95690.5
2018-11-02T02:17:31.239Z,95695.4
2018-11-02T02:18:33.185Z,95694.1
2018-11-02T02:19:35.339Z,95696.4
2018-11-02T02:20:37.728Z,95698.4
2018-11-02T02:21:40.517Z,95697.8
2018-11-02T02:22:42.948Z,95694.4
2018-11-02T02:23:44.849Z,95699.3
2018-11-02T02:24:46.715Z,95695.1
2018-11-02T02:25:49.146Z,95700.2
2018-11-02T02:26:51.012Z,95698.4
2018-11-02T02:27:53.191Z,95700.1
2018-11-02T02:28:55.329Z,95699.2
2018-11-02T02:29:56.939Z,95700.4
2018-11-02T02:30:59.366Z,95693.7
2018-11-02T02:32:01.800Z,95695.5
2018-11-02T02:33:04.228Z,95696.2
2018-11-02T02:34:06.653Z,95694.9
2018-11-02T02:35:09.082Z,95690.8
2018-11-02T02:36:11.649Z,95695.3
2018-11-02T02:37:13.939Z,95692.5
2018-11-02T02:38:16.079Z,95691.4
2018-11-02T02:39:17.971Z,95696.7
2018-11-02T02:40:19.566Z,95690.9
2018-11-02T02:41:21.719Z,95694.4
2018-11-02T02:42:23.859Z,95695.6
2018-11-02T02:43:26.020Z,95698.7
2018-11-02T02:44:28.170Z,95702.6
2018-11-02T02:45:30.593Z,95701.4
2018-11-02T02:46:31.935Z,95704.3
2018-11-02T02:47:34.352Z,95701.5
2018-11-02T02:48:36.515Z,95704.4
2018-11-02T02:49:38.676Z,95704.6
2018-11-02T02:50:41.112Z,95706.2
2018-11-02T02:51:43.149Z,95704.9
2018-11-02T02:52:45.529Z,95705.8
2018-11-02T02:53:47.730Z,95710.1
2018-11-02T02:54:49.641Z,95711.8
2018-11-02T02:55:51.793Z,95708
2018-11-02T02:56:53.944Z,95713.4
2018-11-02T02:57:56.365Z,95710.8
2018-11-02T02:58:58.529Z,95711.1
2018-11-02T03:00:00.959Z,95710.7
2018-11-02T03:01:03.095Z,95710.9
2018-11-02T03:02:04.968Z,95712.3
2018-11-02T03:03:07.110Z,95713.6
2018-11-02T03:04:09.239Z,95713.9
2018-11-02T03:05:11.125Z,95716
2018-11-02T03:06:13.337Z,95706.7
2018-11-02T03:07:16.365Z,95712.8
2018-11-02T03:08:19.154Z,95709.3
2018-11-02T03:09:22.119Z,95710.7
2018-11-02T03:10:24.328Z,95705.9
2018-11-02T03:11:26.553Z,95701.7
2018-11-02T03:12:28.987Z,95703.6
2018-11-02T03:13:31.427Z,95699.3
2018-11-02T03:14:33.041Z,95705.6
2018-11-02T03:15:35.491Z,95706.2
2018-11-02T03:16:37.628Z,95706.5
2018-11-02T03:17:39.772Z,95712.9
2018-11-02T03:18:42.821Z,95714.9
2018-11-02T03:19:44.781Z,95714.5
2018-11-02T03:20:47.022Z,95717.3
2018-11-02T03:21:49.157Z,95718
2018-11-02T03:22:50.765Z,95712.5
2018-11-02T03:23:53.574Z,95713.1
2018-11-02T03:24:56.403Z,95710.8
2018-11-02T03:25:58.631Z,95705.7
2018-11-02T03:27:00.796Z,95705.3
2018-11-02T03:28:02.929Z,95708.1
2018-11-02T03:29:05.085Z,95710.3
2018-11-02T03:30:07.234Z,95715.2
2018-11-02T03:31:09.418Z,95713.3
2018-11-02T03:32:11.932Z,95716
2018-11-02T03:33:14.378Z,95718
2018-11-02T03:34:16.569Z,95714.3
2018-11-02T03:35:18.172Z,95718.6
2018-11-02T03:36:20.059Z,95717.5
2018-11-02T03:37:21.964Z,95715.9
2018-11-02T03:38:23.848Z,95717.7
2018-11-02T03:39:27.147Z,95721.5
2018-11-02T03:40:29.970Z,95720.1
2018-11-02T03:41:32.107Z,95722.6
2018-11-02T03:42:33.977Z,95724.6
2018-11-02T03:43:36.426Z,95728
2018-11-02T03:44:38.624Z,95722.9
2018-11-02T03:45:40.774Z,95726.9
2018-11-02T03:46:42.925Z,95733.2
2018-11-02T03:47:45.357Z,95725.9
2018-11-02T03:48:47.276Z,95735.3
2018-11-02T03:49:49.477Z,95734.7
2018-11-02T03:50:51.100Z,95734.6
2018-11-02T03:51:52.976Z,95737.7
2018-11-02T03:52:55.151Z,95736.9
2018-11-02T03:53:56.767Z,95731.3
2018-11-02T03:54:59.092Z,95734.9
2018-11-02T03:56:02.050Z,95733.3
2018-11-02T03:57:04.439Z,95735.9
2018-11-02T03:58:06.868Z,95732.9
2018-11-02T03:59:09.041Z,95738.5
2018-11-02T04:00:11.478Z,95736
2018-11-02T04:01:13.913Z,95739.6
2018-11-02T04:02:15.835Z,95735.6
2018-11-02T04:03:18.260Z,95737.8
2018-11-02T04:04:20.411Z,95736.8
2018-11-02T04:05:22.323Z,95738.7
2018-11-02T04:06:24.767Z,95734.2
2018-11-02T04:07:26.628Z,95733.4
2018-11-02T04:08:28.227Z,95734.6
2018-11-02T04:09:31.102Z,95737.4
2018-11-02T04:10:33.451Z,95738.8
2018-11-02T04:11:36.669Z,95739.1
2018-11-02T04:12:39.678Z,95741.2
2018-11-02T04:13:41.842Z,95744.2
2018-11-02T04:14:43.441Z,95741.6
2018-11-02T04:15:45.868Z,95751
2018-11-02T04:16:48.040Z,95751.6
2018-11-02T04:17:49.905Z,95748.9
2018-11-02T04:18:52.335Z,95748.4
2018-11-02T04:19:54.774Z,95748.3
2018-11-02T04:20:56.920Z,95747.5
2018-11-02T04:21:59.338Z,95744.5
2018-11-02T04:23:01.497Z,95747.1
2018-11-02T04:24:03.084Z,95744.1
2018-11-02T04:25:04.739Z,95738.4
2018-11-02T04:26:06.889Z,95741.5
2018-11-02T04:27:10.100Z,95736.6
2018-11-02T04:28:11.870Z,95739
2018-11-02T04:29:14.558Z,95738.9
2018-11-02T04:30:16.771Z,95738.4
2018-11-02T04:31:19.195Z,95737.2
2018-11-02T04:32:21.099Z,95741.4
2018-11-02T04:33:22.992Z,95741.4
2018-11-02T04:34:24.622Z,95743.8
2018-11-02T04:35:27.046Z,95741.7
2018-11-02T04:36:29.370Z,95749.2
2018-11-02T04:37:31.536Z,95752.3
2018-11-02T04:38:33.971Z,95758.3
2018-11-02T04:39:35.822Z,95756.1
2018-11-02T04:40:37.976Z,95760.8
2018-11-02T04:41:39.832Z,95766.1
2018-11-02T04:42:41.243Z,95763
2018-11-02T04:43:44.500Z,95763.5
2018-11-02T04:44:46.945Z,95768.6
2018-11-02T04:45:48.884Z,95767.5
2018-11-02T04:46:50.976Z,95770.4
2018-11-02T04:47:53.138Z,95767.4
2018-11-02T04:48:55.558Z,95769.9
2018-11-02T04:49:57.457Z,95778.5
2018-11-02T04:50:59.593Z,95781.7
2018-11-02T04:52:02.268Z,95782
2018-11-02T04:53:04.428Z,95787
2018-11-02T04:54:06.578Z,95786.5
2018-11-02T04:55:08.724Z,95786.5
2018-11-02T04:56:10.898Z,95787.3
2018-11-02T04:57:12.482Z,95789.3
2018-11-02T04:58:14.393Z,95791.2
2018-11-02T04:59:17.095Z,95793.2
2018-11-02T05:00:19.414Z,95791.9
2018-11-02T05:01:21.900Z,95791.7
2018-11-02T05:02:24.317Z,95790.6
2018-11-02T05:03:26.180Z,95790.7
2018-11-02T05:04:27.821Z,95792.7
2018-11-02T05:05:29.995Z,95793.9
2018-11-02T05:06:32.118Z,95796.8
2018-11-02T05:07:34.024Z,95803.1
2018-11-02T05:08:36.454Z,95802.1
2018-11-02T05:09:39.130Z,95801.8
2018-11-02T05:10:41.350Z,95798.7
2018-11-02T05:11:43.506Z,95806.8
2018-11-02T05:12:45.673Z,95797.6
2018-11-02T05:13:47.838Z,95799.9
2018-11-02T05:14:50.170Z,95803.4
2018-11-02T05:15:52.385Z,95800.9
2018-11-02T05:16:54.538Z,95802.8
2018-11-02T05:17:56.178Z,95813.7
2018-11-02T05:18:58.059Z,95813.2
2018-11-02T05:20:00.492Z,95818
2018-11-02T05:21:02.895Z,95820.6
2018-11-02T05:22:04.944Z,95816.4
2018-11-02T05:23:07.152Z,95819.6
2018-11-02T05:24:09.358Z,95823.3
2018-11-02T05:25:11.312Z,95825.2
2018-11-02T05:26:13.754Z,95826.3
2018-11-02T05:27:15.631Z,95822.4
2018-11-02T05:28:17.787Z,95826.7
2018-11-02T05:29:19.688Z,95828.6
2018-11-02T05:30:21.706Z,95827.1
2018-11-02T05:31:23.939Z,95823.5
2018-11-02T05:32:26.990Z,95826.7
2018-11-02T05:33:29.147Z,95827.4
2018-11-02T05:34:31.292Z,95820
2018-11-02T05:35:33.171Z,95825.1
2018-11-02T05:36:35.614Z,95828.2
2018-11-02T05:37:37.799Z,95828.2
2018-11-02T05:38:39.928Z,95827
2018-11-02T05:39:43.010Z,95829.5
2018-11-02T05:40:44.858Z,95827.5
2018-11-02T05:41:47.039Z,95821.4
2018-11-02T05:42:49.468Z,95824
2018-11-02T05:43:51.619Z,95824
2018-11-02T05:44:53.828Z,95827.5
2018-11-02T05:45:56.321Z,95828.1
2018-11-02T05:46:59.434Z,95828.3
2018-11-02T05:48:02.132Z,95829.9
2018-11-02T05:49:05.156Z,95829.4
2018-11-02T05:50:07.050Z,95836.6
2018-11-02T05:51:08.901Z,95836.4
2018-11-02T05:52:11.069Z,95839.1
2018-11-02T05:53:13.497Z,95841.6
2018-11-02T05:54:16.204Z,95837
2018-11-02T05:55:18.388Z,95832.8
2018-11-02T05:56:20.583Z,95831.2
2018-11-02T05:57:23.031Z,95829.1
2018-11-02T05:58:25.456Z,95830.6
2018-11-02T05:59:27.612Z,95828.5
2018-11-02T06:00:29.765Z,95822.6
2018-11-02T06:01:31.532Z,95824.4
2018-11-02T06:02:34.176Z,95829.1
2018-11-02T06:03:36.926Z,95828.5
2018-11-02T06:04:39.558Z,95832.1
2018-11-02T06:05:42.106Z,95834.5
2018-11-02T06:06:44.037Z,95834.2
2018-11-02T06:07:47.366Z,95835.9
2018-11-02T06:08:49.753Z,95837.8
2018-11-02T06:09:51.674Z,95837.8
2018-11-02T06:10:53.567Z,95840.9
2018-11-02T06:11:55.750Z,95845.1
2018-11-02T06:12:57.589Z,95849.1
2018-11-02T06:14:00.016Z,95849.3
2018-11-02T06:15:01.336Z,95852.5
2018-11-02T06:16:03.229Z,95850.8
2018-11-02T06:17:05.114Z,95849.5
2018-11-02T06:18:07.552Z,95853.7
2018-11-02T06:19:09.983Z,95855.1
2018-11-02T06:20:12.384Z,95854.3
2018-11-02T06:21:14.776Z,95856.1
2018-11-02T06:22:17.429Z,95855.3
2018-11-02T06:23:19.326Z,95856.7
2018-11-02T06:24:22.529Z,95855.6
2018-11-02T06:25:25.248Z,95859.8
2018-11-02T06:26:27.408Z,95857.1
2018-11-02T06:27:29.618Z,95863.1
2018-11-02T06:28:32.053Z,95861.5
2018-11-02T06:29:34.474Z,95865.4
2018-11-02T06:30:37.018Z,95863.1
2018-11-02T06:31:39.634Z,95867.8
2018-11-02T06:32:42.442Z,95866.5
2018-11-02T06:33:44.981Z,95867.8
2018-11-02T06:34:47.156Z,95869.5
2018-11-02T06:35:49.050Z,95874
2018-11-02T06:36:50.661Z,95866
2018-11-02T06:37:53.393Z,95865.7
2018-11-02T06:38:56.841Z,95869.5
2018-11-02T06:39:59.141Z,95869.5
2018-11-02T06:41:01.599Z,95871.8
2018-11-02T06:42:03.486Z,95874.9
2018-11-02T06:43:05.646Z,95875
2018-11-02T06:44:08.078Z,95881.1
2018-11-02T06:45:10.465Z,95882
2018-11-02T06:46:12.358Z,95886.6
2018-11-02T06:47:14.520Z,95884.3
2018-11-02T06:48:16.390Z,95886
2018-11-02T06:49:18.584Z,95887.2
2018-11-02T06:50:21.034Z,95880.9
2018-11-02T06:51:22.651Z,95887.1
2018-11-02T06:52:24.269Z,95887.3
2018-11-02T06:53:26.774Z,95884.6
2018-11-02T06:54:29.000Z,95890.9
2018-11-02T06:55:31.186Z,95900.1
2018-11-02T06:56:33.654Z,95899.4
2018-11-02T06:57:35.753Z,95901
2018-11-02T06:58:37.897Z,95907.4
2018-11-02T06:59:41.083Z,95908.7
2018-11-02T07:00:44.156Z,95911.5
2018-11-02T07:01:46.565Z,95911.3
2018-11-02T07:02:49.034Z,95912.7
2018-11-02T07:03:51.493Z,95915.9
2018-11-02T07:04:53.927Z,95910.3
2018-11-02T07:05:55.552Z,95914.1
2018-11-02T07:06:57.965Z,95910.6
2018-11-02T07:08:00.846Z,95913.6
2018-11-02T07:09:03.758Z,95911.9
2018-11-02T07:10:05.958Z,95913.6
2018-11-02T07:11:09.002Z,95915.3
2018-11-02T07:12:11.509Z,95911.2
2018-11-02T07:13:14.549Z,95908.1
2018-11-02T07:14:16.693Z,95912.4
2018-11-02T07:15:18.858Z,95909.9
2018-11-02T07:16:21.289Z,95916.7
2018-11-02T07:17:23.162Z,95912.8
2018-11-02T07:18:25.589Z,95912.9
2018-11-02T07:19:28.020Z,95910.9
2018-11-02T07:20:30.157Z,95910.6
2018-11-02T07:21:32.338Z,95912.5
2018-11-02T07:22:34.476Z,95917.5
2018-11-02T07:23:36.899Z,95915.4
2018-11-02T07:24:39.062Z,95917.3
2018-11-02T07:25:41.238Z,95916.9
2018-11-02T07:26:43.177Z,95913.9
2018-11-02T07:27:45.637Z,95917.2
2018-11-02T07:28:47.256Z,95918.7
2018-11-02T07:29:49.976Z,95919.2
2018-11-02T07:30:52.406Z,95916.1
2018-11-02T07:31:54.854Z,95919.1
2018-11-02T07:32:57.286Z,95920.1
2018-11-02T07:33:59.441Z,95919.4
2018-11-02T07:35:01.599Z,95913.1
2018-11-02T07:36:04.052Z,95917.2
2018-11-02T07:37:06.204Z,95918.8
2018-11-02T07:38:08.359Z,95917.8
2018-11-02T07:39:10.798Z,95915.9
2018-11-02T07:40:12.689Z,95918.8
2018-11-02T07:41:14.280Z,95920.2
2018-11-02T07:42:16.339Z,95920.5
2018-11-02T07:43:18.224Z,95920.5
2018-11-02T07:44:20.661Z,95917.3
2018-11-02T07:45:23.749Z,95916.1
2018-11-02T07:46:25.839Z,95917.2
2018-11-02T07:47:28.287Z,95915
2018-11-02T07:48:29.929Z,95918.1
2018-11-02T07:49:32.875Z,95920.1
2018-11-02T07:50:35.279Z,95925
2018-11-02T07:51:37.160Z,95926.9
2018-11-02T07:52:39.365Z,95931.4
2018-11-02T07:53:41.229Z,95938.3
2018-11-02T07:54:43.410Z,95938.6
2018-11-02T07:55:45.592Z,95945.7
2018-11-02T07:56:47.469Z,95943.6
2018-11-02T07:57:49.927Z,95941.8
2018-11-02T07:58:52.369Z,95937.5
2018-11-02T07:59:54.233Z,95940.1
2018-11-02T08:00:56.763Z,95937.8
2018-11-02T08:02:00.197Z,95940.3
2018-11-02T08:03:03.272Z,95937.1
2018-11-02T08:04:05.663Z,95936.8
2018-11-02T08:05:08.001Z,95931.5
2018-11-02T08:06:09.628Z,95931.7
2018-11-02T08:07:11.788Z,95931
2018-11-02T08:08:13.669Z,95935.8
2018-11-02T08:09:15.828Z,95937
2018-11-02T08:10:17.706Z,95937.1
2018-11-02T08:11:20.165Z,95939.2
2018-11-02T08:12:21.727Z,95934.8
2018-11-02T08:13:23.880Z,95935.2
2018-11-02T08:14:25.769Z,95932.4
2018-11-02T08:15:27.643Z,95934.8
2018-11-02T08:16:30.094Z,95936.6
2018-11-02T08:17:32.803Z,95933.8
2018-11-02T08:18:34.784Z,95933.5
2018-11-02T08:19:36.198Z,95936.2
2018-11-02T08:20:37.526Z,95937.8
2018-11-02T08:21:39.406Z,95938.7
2018-11-02T08:22:41.841Z,95939.2
2018-11-02T08:23:44.005Z,95944
2018-11-02T08:24:46.179Z,95941.3
2018-11-02T08:25:48.610Z,95938.2
2018-11-02T08:26:50.505Z,95938.3
2018-11-02T08:27:52.968Z,95940.1
2018-11-02T08:28:55.400Z,95937.9
2018-11-02T08:29:57.824Z,95939.4
2018-11-02T08:30:59.716Z,95934.3
2018-11-02T08:32:02.171Z,95933.4
2018-11-02T08:33:04.124Z,95933.9
2018-11-02T08:34:06.005Z,95926.9
2018-11-02T08:35:08.280Z,95927.3
2018-11-02T08:36:10.699Z,95927.7
2018-11-02T08:37:13.171Z,95931
2018-11-02T08:38:15.592Z,95934.5
2018-11-02T08:39:17.488Z,95936.5
2018-11-02T08:40:19.386Z,95936.3
2018-11-02T08:41:21.565Z,95935.8
2018-11-02T08:42:24.057Z,95941.6
2018-11-02T08:43:26.216Z,95942.8
2018-11-02T08:44:28.648Z,95945.3
2018-11-02T08:45:30.818Z,95944.9
2018-11-02T08:46:33.843Z,95949
2018-11-02T08:47:36.038Z,95955.6
2018-11-02T08:48:38.505Z,95957.6
2018-11-02T08:49:40.669Z,95961.1
2018-11-02T08:50:43.108Z,95965.7
2018-11-02T08:51:45.268Z,95967.2
2018-11-02T08:52:47.706Z,95967.2
2018-11-02T08:53:49.902Z,95961.9
2018-11-02T08:54:52.341Z,95967.8
2018-11-02T08:55:54.499Z,95963.2
2018-11-02T08:56:56.933Z,95962.8
2018-11-02T08:58:00.088Z,95963.7
2018-11-02T08:59:02.644Z,95962.9
2018-11-02T09:00:05.628Z,95958.2
2018-11-02T09:01:08.210Z,95959.2
2018-11-02T09:02:10.090Z,95967.3
2018-11-02T09:03:12.257Z,95963.8
2018-11-02T09:04:14.525Z,95964.2
2018-11-02T09:05:16.959Z,95969.6
2018-11-02T09:06:19.142Z,95969.8
2018-11-02T09:07:21.574Z,95971
2018-11-02T09:08:24.018Z,95974.1
2018-11-02T09:09:25.887Z,95969
2018-11-02T09:10:28.321Z,95968.2
2018-11-02T09:11:30.749Z,95965.7
2018-11-02T09:12:33.174Z,95964
2018-11-02T09:13:35.349Z,95967.6
2018-11-02T09:14:37.213Z,95968.5
2018-11-02T09:15:39.381Z,95964.7
2018-11-02T09:16:41.811Z,95962.8
2018-11-02T09:17:43.976Z,95958.3
2018-11-02T09:18:46.317Z,95954.8
2018-11-02T09:19:48.397Z,95947.7
2018-11-02T09:20:50.267Z,95946.4
2018-11-02T09:21:52.164Z,95946.4
2018-11-02T09:22:54.084Z,95945.9
2018-11-02T09:23:56.252Z,95947.7
2018-11-02T09:24:58.412Z,95948.8
2018-11-02T09:26:00.842Z,95948
2018-11-02T09:27:03.632Z,95949.8
2018-11-02T09:28:06.862Z,95952.4
2018-11-02T09:29:09.640Z,95955.2
2018-11-02T09:30:11.533Z,95955.4
2018-11-02T09:31:13.430Z,95959.7
2018-11-02T09:32:15.581Z,95958.5
2018-11-02T09:33:17.765Z,95959.3
2018-11-02T09:34:20.800Z,95955.2
2018-11-02T09:35:22.890Z,95962.4
2018-11-02T09:36:25.328Z,95961.8
2018-11-02T09:37:27.201Z,95968
2018-11-02T09:38:29.367Z,95969.3
2018-11-02T09:39:31.522Z,95964.5
2018-11-02T09:40:34.340Z,95968.8
2018-11-02T09:41:36.337Z,95969.8
2018-11-02T09:42:37.836Z,95970.6
2018-11-02T09:43:39.761Z,95968.2
2018-11-02T09:44:41.642Z,95965.4
2018-11-02T09:45:43.533Z,95964.4
2018-11-02T09:46:45.399Z,95960.9
2018-11-02T09:47:47.848Z,95957.6
2018-11-02T09:48:50.245Z,95952.1
2018-11-02T09:49:52.822Z,95952.1
2018-11-02T09:50:55.523Z,95948.7
2018-11-02T09:51:57.515Z,95947.2
2018-11-02T09:52:59.152Z,95948.3
2018-11-02T09:54:01.028Z,95952.4
2018-11-02T09:55:03.222Z,95955.6
2018-11-02T09:56:05.360Z,95955.6
2018-11-02T09:57:07.789Z,95957.8
2018-11-02T09:58:09.651Z,95950.9
2018-11-02T09:59:12.081Z,95956.3
2018-11-02T10:00:13.396Z,95954.1
2018-11-02T10:01:15.281Z,95956.7
2018-11-02T10:02:17.711Z,95952.8
2018-11-02T10:03:20.409Z,95949.5
2018-11-02T10:04:22.304Z,95951.6
2018-11-02T10:05:25.000Z,95950.1
2018-11-02T10:06:27.119Z,95950
2018-11-02T10:07:29.288Z,95953.1
2018-11-02T10:08:31.640Z,95953
2018-11-02T10:09:33.698Z,95952.8
2018-11-02T10:10:35.880Z,95957.8
2018-11-02T10:11:37.844Z,95954
2018-11-02T10:12:39.510Z,95957.5
2018-11-02T10:13:41.990Z,95957.6
2018-11-02T10:14:44.154Z,95955.7
2018-11-02T10:15:46.092Z,95953.9
2018-11-02T10:16:47.959Z,95950.2
2018-11-02T10:17:50.397Z,95941.2
2018-11-02T10:18:52.552Z,95938.6
2018-11-02T10:19:55.537Z,95939.5
2018-11-02T10:20:57.714Z,95932.6
2018-11-02T10:22:00.615Z,95925.2
2018-11-02T10:23:02.511Z,95922.8
2018-11-02T10:24:04.423Z,95918.1
2018-11-02T10:25:06.607Z,95916.2
2018-11-02T10:26:08.508Z,95912.8
2018-11-02T10:27:10.738Z,95914.5
2018-11-02T10:28:13.032Z,95917.8
2018-11-02T10:29:15.496Z,95917
2018-11-02T10:30:17.358Z,95918.5
2018-11-02T10:31:19.808Z,95911.9
2018-11-02T10:32:22.241Z,95903.9
2018-11-02T10:33:24.410Z,95908.2
2018-11-02T10:34:25.997Z,95905.5
2018-11-02T10:35:28.853Z,95909
2018-11-02T10:36:30.667Z,95909.2
2018-11-02T10:37:33.160Z,95904.7
2018-11-02T10:38:35.630Z,95910.5
2018-11-02T10:39:38.293Z,95914.1
2018-11-02T10:40:40.178Z,95915.4
2018-11-02T10:41:42.315Z,95920.1
2018-11-02T10:42:44.485Z,95914.5
2018-11-02T10:43:46.399Z,95920.5
2018-11-02T10:44:49.273Z,95919.3
2018-11-02T10:45:51.892Z,95921.5
2018-11-02T10:46:54.053Z,95922.5
2018-11-02T10:47:56.474Z,95923.7
2018-11-02T10:48:58.909Z,95920.3
2018-11-02T10:50:01.084Z,95919.8
2018-11-02T10:51:04.167Z,95923
2018-11-02T10:52:07.798Z,95921.2
2018-11-02T10:53:09.400Z,95920.7
2018-11-02T10:54:11.831Z,95916.5
2018-11-02T10:55:13.979Z,95911.4
2018-11-02T10:56:15.572Z,95912.4
2018-11-02T10:57:17.170Z,95913.9
2018-11-02T10:58:19.368Z,95917.1
2018-11-02T10:59:21.547Z,95919.3
2018-11-02T11:00:23.716Z,95922
2018-11-02T11:01:26.636Z,95927.8
2018-11-02T11:02:28.733Z,95927.5
2018-11-02T11:03:30.669Z,95926.5
2018-11-02T11:04:32.837Z,95930.9
2018-11-02T11:05:35.668Z,95930
2018-11-02T11:06:37.858Z,95927.8
2018-11-02T11:07:41.017Z,95926
2018-11-02T11:08:43.854Z,95920.9
2018-11-02T11:09:45.906Z,95922.6
2018-11-02T11:10:48.345Z,95923.6
2018-11-02T11:11:51.376Z,95929.7
2018-11-02T11:12:56.470Z,95938
2018-11-02T11:13:58.628Z,95946.4
2018-11-02T11:15:01.077Z,95943.5
2018-11-02T11:16:02.973Z,95946.7
2018-11-02T11:17:05.153Z,95944.3
2018-11-02T11:18:07.589Z,95940.5
2018-11-02T11:19:09.753Z,95941
2018-11-02T11:20:11.928Z,95947.9
2018-11-02T11:21:14.516Z,95946.8
2018-11-02T11:22:16.727Z,95951
2018-11-02T11:23:19.155Z,95949
2018-11-02T11:24:21.710Z,95945.5
2018-11-02T11:25:24.212Z,95941.5
2018-11-02T11:26:25.985Z,95937.5
2018-11-02T11:27:28.180Z,95938.3
2018-11-02T11:28:30.358Z,95934
2018-11-02T11:29:33.307Z,95934.8
2018-11-02T11:30:34.986Z,95931.9
2018-11-02T11:31:36.852Z,95927.9
2018-11-02T11:32:38.811Z,95923.5
2018-11-02T11:33:40.701Z,95917.3
2018-11-02T11:34:42.318Z,95913.8
2018-11-02T11:35:43.919Z,95907.6
2018-11-02T11:36:46.524Z,95910.8
2018-11-02T11:37:48.301Z,95906.7
2018-11-02T11:38:51.223Z,95906.6
2018-11-02T11:39:54.671Z,95910.6
2018-11-02T11:40:57.193Z,95912.4
2018-11-02T11:41:59.365Z,95914.5
2018-11-02T11:43:01.792Z,95918.2
2018-11-02T11:44:03.956Z,95918.3
2018-11-02T11:45:05.850Z,95919.5
2018-11-02T11:46:08.289Z,95926.3
2018-11-02T11:47:10.427Z,95928.1
2018-11-02T11:48:12.332Z,95927.1
2018-11-02T11:49:14.505Z,95925.5
2018-11-02T11:50:16.811Z,95928.4
2018-11-02T11:51:19.252Z,95931.5
2018-11-02T11:52:21.767Z,95935.8
2018-11-02T11:53:24.195Z,95931.7
2018-11-02T11:54:26.452Z,95932.3
2018-11-02T11:55:29.523Z,95935.2
2018-11-02T11:56:32.110Z,95938.8
2018-11-02T11:57:34.539Z,95936.4
2018-11-02T11:58:36.697Z,95929.4
2018-11-02T11:59:38.578Z,95930.8
2018-11-02T12:00:40.744Z,95925.3
2018-11-02T12:01:42.607Z,95929.2
2018-11-02T12:02:44.762Z,95930.6
2018-11-02T12:03:46.340Z,95934.2
2018-11-02T12:04:48.741Z,95932.2
2018-11-02T12:05:51.070Z,95935.3
2018-11-02T12:06:53.260Z,95934.1
2018-11-02T12:07:55.160Z,95934.5
2018-11-02T12:08:57.032Z,95933.2
2018-11-02T12:09:59.674Z,95931.2
2018-11-02T12:11:02.391Z,95928.6
2018-11-02T12:12:05.181Z,95926
2018-11-02T12:13:07.056Z,95927.8
2018-11-02T12:14:09.491Z,95929.6
2018-11-02T12:15:11.070Z,95931.2
2018-11-02T12:16:12.959Z,95935.1
2018-11-02T12:17:15.395Z,95933.8
2018-11-02T12:18:17.571Z,95934.4
2018-11-02T12:19:20.005Z,95939.2
2018-11-02T12:20:22.135Z,95938.7
2018-11-02T12:21:24.071Z,95933.5
2018-11-02T12:22:26.288Z,95929.4
2018-11-02T12:23:28.967Z,95936.4
2018-11-02T12:24:30.799Z,95933.8
2018-11-02T12:25:32.660Z,95934.6
2018-11-02T12:26:34.774Z,95933.5
2018-11-02T12:27:36.956Z,95931.1
2018-11-02T12:28:39.374Z,95929.6
2018-11-02T12:29:41.424Z,95928.5
2018-11-02T12:30:43.540Z,95925.2
2018-11-02T12:31:45.840Z,95928.6
2018-11-02T12:32:47.709Z,95921.1
2018-11-02T12:33:50.186Z,95919.2
2018-11-02T12:34:52.643Z,95920.9
2018-11-02T12:35:54.818Z,95925.5
2018-11-02T12:36:57.210Z,95921.7